createdAt,value
2022-12-14T00:01:21.860Z,0.29
2022-12-14T00:03:49.396Z,0.19
2022-12-14T00:06:27.747Z,0.18
2022-12-14T00:08:56.610Z,0.07
2022-12-14T00:11:23.838Z,0.03
2022-12-14T00:13:58.237Z,0.04
2022-12-14T00:16:27.507Z,-0.06
2022-12-14T00:18:56.927Z,0.11
2022-12-14T00:21:24.116Z,0.14
2022-12-14T00:23:52.193Z,0.15
2022-12-14T00:26:24.381Z,0.09
2022-12-14T00:28:52.986Z,0.03
2022-12-14T00:31:20.659Z,0.11
2022-12-14T00:33:47.636Z,0.13
2022-12-14T00:36:14.640Z,0.17
2022-12-14T00:38:41.270Z,0.23
2022-12-14T00:41:09.050Z,0.20
2022-12-14T00:43:36.026Z,0.13
2022-12-14T00:46:02.698Z,0.10
2022-12-14T00:48:30.224Z,0.23
2022-12-14T00:50:57.637Z,0.38
2022-12-14T00:53:25.285Z,0.36
2022-12-14T00:55:52.286Z,0.37
2022-12-14T00:58:21.407Z,0.29
2022-12-14T01:00:57.831Z,0.29
2022-12-14T01:03:24.868Z,0.01
2022-12-14T01:05:51.519Z,0.09
2022-12-14T01:08:18.091Z,0.06
2022-12-14T01:10:44.777Z,0.12
2022-12-14T01:13:11.451Z,0.13
2022-12-14T01:15:38.364Z,0.10
2022-12-14T01:18:05.007Z,-0.00
2022-12-14T01:20:31.582Z,0.11
2022-12-14T01:22:58.151Z,-0.10
2022-12-14T01:25:25.267Z,-0.02
2022-12-14T01:27:51.867Z,-0.06
2022-12-14T01:30:19.229Z,0.05
2022-12-14T01:32:46.561Z,0.10
2022-12-14T01:35:13.076Z,0.04
2022-12-14T01:37:39.637Z,0.13
2022-12-14T01:40:06.613Z,0.14
2022-12-14T01:42:35.851Z,0.11
2022-12-14T01:45:02.839Z,0.12
2022-12-14T01:47:35.798Z,0.03
2022-12-14T01:50:26.369Z,-0.02
2022-12-14T01:52:58.702Z,0.07
2022-12-14T01:55:41.594Z,0.01
2022-12-14T01:58:23.235Z,-0.06
2022-12-14T02:00:53.957Z,-0.04
2022-12-14T02:03:24.977Z,0.03
2022-12-14T02:05:58.210Z,-0.14
2022-12-14T02:08:27.000Z,-0.09
2022-12-14T02:10:55.274Z,-0.08
2022-12-14T02:13:27.336Z,-0.21
2022-12-14T02:15:54.803Z,-0.19
2022-12-14T02:18:26.793Z,-0.08
2022-12-14T02:21:25.011Z,-0.06
2022-12-14T02:24:15.982Z,-0.01
2022-12-14T02:27:24.492Z,-0.33
2022-12-14T02:30:18.430Z,-0.48
2022-12-14T02:33:15.541Z,-0.39
2022-12-14T02:35:45.559Z,-0.31
2022-12-14T02:38:49.692Z,-0.28
2022-12-14T02:41:56.598Z,-0.41
2022-12-14T02:44:44.638Z,-0.54
2022-12-14T02:47:38.222Z,-0.55
2022-12-14T02:50:07.824Z,-0.60
2022-12-14T02:52:38.163Z,-0.52
2022-12-14T02:55:19.856Z,-0.54
2022-12-14T02:57:49.142Z,-0.53
2022-12-14T03:00:16.178Z,-0.40
2022-12-14T03:02:45.231Z,-0.49
2022-12-14T03:05:11.995Z,-0.70
2022-12-14T03:07:48.691Z,-0.71
2022-12-14T03:10:30.386Z,-0.70
2022-12-14T03:13:19.842Z,-0.53
2022-12-14T03:15:52.935Z,-0.51
2022-12-14T03:18:24.241Z,-0.51
2022-12-14T03:20:53.851Z,-0.37
2022-12-14T03:23:28.884Z,-0.37
2022-12-14T03:26:10.907Z,-0.36
2022-12-14T03:28:51.684Z,-0.34
2022-12-14T03:31:38.265Z,-0.30
2022-12-14T03:34:13.161Z,-0.19
2022-12-14T03:36:53.129Z,-0.29
2022-12-14T03:39:31.676Z,-0.38
2022-12-14T03:42:10.788Z,-0.48
2022-12-14T03:44:59.150Z,-0.48
2022-12-14T03:48:03.405Z,-0.32
2022-12-14T03:50:33.792Z,-0.40
2022-12-14T03:53:09.484Z,-0.43
2022-12-14T03:55:45.202Z,-0.45
2022-12-14T03:58:21.842Z,-0.50
2022-12-14T04:01:29.650Z,-0.57
2022-12-14T04:04:06.805Z,-0.62
2022-12-14T04:06:43.244Z,-0.53
2022-12-14T04:09:45.878Z,-0.52
2022-12-14T04:12:35.898Z,-0.53
2022-12-14T04:15:30.085Z,-0.61
2022-12-14T04:18:20.744Z,-0.52
2022-12-14T04:20:55.646Z,-0.64
2022-12-14T04:23:53.238Z,-0.63
2022-12-14T04:26:25.750Z,-0.50
2022-12-14T04:29:25.571Z,-0.38
2022-12-14T04:31:57.838Z,-0.45
2022-12-14T04:34:28.280Z,-0.48
2022-12-14T04:36:57.608Z,-0.45
2022-12-14T04:39:33.508Z,-0.41
2022-12-14T04:42:02.667Z,-0.35
2022-12-14T04:44:35.098Z,-0.36
2022-12-14T04:47:05.766Z,-0.36
2022-12-14T04:49:39.599Z,-0.45
2022-12-14T04:52:35.574Z,-0.33
2022-12-14T04:55:11.671Z,-0.21
2022-12-14T04:57:55.198Z,-0.18
2022-12-14T05:00:22.210Z,-0.13
2022-12-14T05:02:51.763Z,-0.31
2022-12-14T05:05:37.077Z,-0.43
2022-12-14T05:08:22.016Z,-0.38
2022-12-14T05:11:09.230Z,-0.32
2022-12-14T05:13:50.635Z,-0.37
2022-12-14T05:16:18.707Z,-0.21
2022-12-14T05:18:45.958Z,-0.18
2022-12-14T05:21:32.933Z,-0.17
2022-12-14T05:24:01.521Z,-0.16
2022-12-14T05:26:29.015Z,-0.09
2022-12-14T05:28:56.654Z,-0.10
2022-12-14T05:31:24.423Z,-0.26
2022-12-14T05:33:51.061Z,-0.26
2022-12-14T05:36:18.612Z,-0.35
2022-12-14T05:38:45.215Z,-0.32
2022-12-14T05:41:11.727Z,-0.29
2022-12-14T05:43:38.333Z,-0.31
2022-12-14T05:46:05.233Z,-0.26
2022-12-14T05:48:32.107Z,-0.16
2022-12-14T05:51:07.485Z,-0.17
2022-12-14T05:53:37.603Z,-0.09
2022-12-14T05:56:07.955Z,-0.25
2022-12-14T05:58:35.389Z,-0.27
2022-12-14T06:01:09.151Z,-0.43
2022-12-14T06:03:38.309Z,-0.58
2022-12-14T06:06:07.694Z,-0.64
2022-12-14T06:08:36.124Z,-0.60
2022-12-14T06:11:14.084Z,-0.62
2022-12-14T06:13:42.239Z,-0.59
2022-12-14T06:16:11.844Z,-0.51
2022-12-14T06:18:43.555Z,-0.59
2022-12-14T06:21:10.560Z,-0.65
2022-12-14T06:23:37.161Z,-0.90
2022-12-14T06:26:03.791Z,-1.04
2022-12-14T06:28:30.585Z,-0.71
2022-12-14T06:30:57.218Z,-0.53
2022-12-14T06:33:23.786Z,-0.54
2022-12-14T06:35:50.336Z,-0.39
2022-12-14T06:38:17.504Z,-0.32
2022-12-14T06:40:44.114Z,-0.43
2022-12-14T06:43:11.377Z,-0.51
2022-12-14T06:45:38.508Z,-0.36
2022-12-14T06:48:05.284Z,-0.38
2022-12-14T06:50:31.919Z,-0.47
2022-12-14T06:52:58.401Z,-0.63
2022-12-14T06:55:25.824Z,-0.80
2022-12-14T06:57:53.627Z,-0.75
2022-12-14T07:00:22.462Z,-0.86
2022-12-14T07:02:49.684Z,-0.78
2022-12-14T07:05:16.754Z,-0.54
2022-12-14T07:07:43.371Z,-0.65
2022-12-14T07:10:10.662Z,-0.53
2022-12-14T07:12:37.270Z,-0.85
2022-12-14T07:15:04.572Z,-1.05
2022-12-14T07:17:31.222Z,-0.87
2022-12-14T07:19:57.839Z,-0.64
2022-12-14T07:22:24.615Z,-0.84
2022-12-14T07:24:51.173Z,-0.74
2022-12-14T07:27:18.889Z,-0.81
2022-12-14T07:29:45.503Z,-1.05
2022-12-14T07:32:12.055Z,-1.08
2022-12-14T07:34:38.701Z,-1.19
2022-12-14T07:37:05.269Z,-1.08
2022-12-14T07:39:31.809Z,-1.02
2022-12-14T07:41:58.383Z,-0.84
2022-12-14T07:44:25.000Z,-0.77
2022-12-14T07:46:53.242Z,-0.74
2022-12-14T07:49:20.034Z,-0.72
2022-12-14T07:51:46.643Z,-0.70
2022-12-14T07:54:13.841Z,-0.77
2022-12-14T07:56:43.220Z,-1.05
2022-12-14T07:59:14.866Z,-1.30
2022-12-14T08:01:43.440Z,-1.17
2022-12-14T08:04:13.177Z,-1.04
2022-12-14T08:06:40.693Z,-1.39
2022-12-14T08:09:09.914Z,-1.27
2022-12-14T08:11:36.931Z,-1.14
2022-12-14T08:14:06.907Z,-0.68
2022-12-14T08:16:33.954Z,-0.83
2022-12-14T08:19:00.993Z,-0.56
2022-12-14T08:21:28.244Z,-0.78
2022-12-14T08:23:55.661Z,-0.71
2022-12-14T08:26:24.024Z,-0.65
2022-12-14T08:28:50.804Z,-0.91
2022-12-14T08:31:20.682Z,-0.95
2022-12-14T08:33:48.419Z,-0.91
2022-12-14T08:36:21.394Z,-0.93
2022-12-14T08:38:59.940Z,-0.81
2022-12-14T08:41:28.202Z,-0.76
2022-12-14T08:43:56.982Z,-0.55
2022-12-14T08:46:25.132Z,-0.79
2022-12-14T08:48:53.379Z,-0.74
2022-12-14T08:51:20.982Z,-0.82
2022-12-14T08:53:48.114Z,-0.74
2022-12-14T08:56:17.647Z,-0.83
2022-12-14T08:58:44.957Z,-0.79
2022-12-14T09:01:17.437Z,-0.67
2022-12-14T09:03:45.535Z,-0.60
2022-12-14T09:06:18.366Z,-0.67
2022-12-14T09:08:44.963Z,-0.67
2022-12-14T09:11:13.781Z,-0.59
2022-12-14T09:13:42.054Z,-0.49
2022-12-14T09:16:14.299Z,-0.36
2022-12-14T09:18:41.126Z,-0.46
2022-12-14T09:21:08.591Z,-0.47
2022-12-14T09:23:36.214Z,-0.44
2022-12-14T09:26:12.006Z,-0.61
2022-12-14T09:28:40.177Z,-0.47
2022-12-14T09:31:10.197Z,-0.15
2022-12-14T09:33:37.041Z,-0.27
2022-12-14T09:36:08.642Z,-0.35
2022-12-14T09:38:37.067Z,-0.47
2022-12-14T09:41:07.652Z,-0.44
2022-12-14T09:43:37.197Z,-0.52
2022-12-14T09:46:33.256Z,-0.32
2022-12-14T09:49:01.989Z,-0.44
2022-12-14T09:51:35.487Z,-0.75
2022-12-14T09:54:14.873Z,-0.65
2022-12-14T09:56:43.993Z,-0.98
2022-12-14T09:59:16.228Z,-0.83
2022-12-14T10:02:30.815Z,-0.61
2022-12-14T10:05:19.472Z,-0.60
2022-12-14T10:08:02.277Z,-0.52
2022-12-14T10:10:40.001Z,-0.50
2022-12-14T10:13:16.010Z,-0.66
2022-12-14T10:15:55.774Z,-0.55
2022-12-14T10:18:59.197Z,-0.32
2022-12-14T10:21:47.727Z,-0.40
2022-12-14T10:24:30.075Z,-0.51
2022-12-14T10:26:56.729Z,-0.31
2022-12-14T10:29:42.865Z,-0.23
2022-12-14T10:32:25.658Z,-0.35
2022-12-14T10:34:52.312Z,-0.41
2022-12-14T10:37:55.878Z,-0.41
2022-12-14T10:40:34.464Z,-0.12
2022-12-14T10:43:31.175Z,-0.04
2022-12-14T10:46:16.646Z,0.02
2022-12-14T10:48:55.154Z,0.10
2022-12-14T10:51:37.178Z,0.22
2022-12-14T10:54:25.581Z,0.12
2022-12-14T10:56:52.311Z,0.19
2022-12-14T10:59:20.586Z,0.23
2022-12-14T11:02:02.027Z,0.11
2022-12-14T11:04:33.311Z,0.20
2022-12-14T11:07:08.465Z,0.18
2022-12-14T11:09:36.347Z,0.15
2022-12-14T11:12:21.640Z,0.17
2022-12-14T11:15:03.887Z,-0.05
2022-12-14T11:17:53.361Z,-0.01
2022-12-14T11:20:27.460Z,-0.21
2022-12-14T11:22:57.023Z,-0.10
2022-12-14T11:25:27.319Z,-0.10
2022-12-14T11:27:54.221Z,-0.07
2022-12-14T11:30:20.855Z,-0.10
2022-12-14T11:32:48.415Z,-0.03
2022-12-14T11:35:17.603Z,-0.05
2022-12-14T11:37:45.515Z,-0.08
2022-12-14T11:40:23.299Z,-0.22
2022-12-14T11:42:51.923Z,-0.28
2022-12-14T11:45:33.725Z,-0.31
2022-12-14T11:48:10.345Z,-0.35
2022-12-14T11:50:37.301Z,-0.40
2022-12-14T11:53:11.031Z,-0.43
2022-12-14T11:55:44.025Z,-0.54
2022-12-14T11:58:22.145Z,-0.70
2022-12-14T12:00:58.334Z,-0.46
2022-12-14T12:03:48.501Z,-0.71
2022-12-14T12:06:21.767Z,-0.62
2022-12-14T12:08:55.881Z,-0.58
2022-12-14T12:11:28.338Z,-0.53
2022-12-14T12:14:06.561Z,-0.37
2022-12-14T12:16:35.371Z,-0.41
2022-12-14T12:19:23.051Z,-0.33
2022-12-14T12:21:50.243Z,-0.59
2022-12-14T12:24:38.749Z,-0.93
2022-12-14T12:27:15.483Z,-0.84
2022-12-14T12:29:52.451Z,-0.62
2022-12-14T12:32:30.810Z,-0.47
2022-12-14T12:35:11.380Z,-0.48
2022-12-14T12:37:50.802Z,-0.41
2022-12-14T12:40:59.137Z,-0.65
2022-12-14T12:43:35.050Z,-0.51
2022-12-14T12:46:01.853Z,-0.45
2022-12-14T12:48:41.441Z,-0.33
2022-12-14T12:51:15.286Z,-0.53
2022-12-14T12:53:46.466Z,-0.30
2022-12-14T12:56:49.037Z,-0.06
2022-12-14T12:59:20.452Z,0.05
2022-12-14T13:01:52.865Z,-0.10
2022-12-14T13:04:31.504Z,0.04
2022-12-14T13:07:10.834Z,-0.10
2022-12-14T13:09:48.607Z,-0.13
2022-12-14T13:12:25.243Z,-0.01
2022-12-14T13:14:52.774Z,0.12
2022-12-14T13:17:44.619Z,0.20
2022-12-14T13:20:40.743Z,0.40
2022-12-14T13:23:43.111Z,0.53
2022-12-14T13:26:56.257Z,0.55
2022-12-14T13:30:00.179Z,0.79
2022-12-14T13:33:04.649Z,0.57
2022-12-14T13:36:00.524Z,0.87
2022-12-14T13:38:35.771Z,0.92
2022-12-14T13:41:02.580Z,0.85
2022-12-14T13:43:51.835Z,0.88
2022-12-14T13:46:23.314Z,1.02
2022-12-14T13:48:53.863Z,1.26
2022-12-14T13:51:28.988Z,1.21
2022-12-14T13:53:59.095Z,1.25
2022-12-14T13:56:38.244Z,1.31
2022-12-14T13:59:20.435Z,1.31
2022-12-14T14:01:47.054Z,1.38
2022-12-14T14:04:14.075Z,1.39
2022-12-14T14:06:51.134Z,1.30
2022-12-14T14:09:30.541Z,1.21
2022-12-14T14:11:58.999Z,1.30
2022-12-14T14:14:49.841Z,1.15
2022-12-14T14:17:30.499Z,1.06
2022-12-14T14:19:59.069Z,1.15
2022-12-14T14:22:30.122Z,1.20
2022-12-14T14:25:12.739Z,1.16
2022-12-14T14:27:47.259Z,1.16
2022-12-14T14:30:33.471Z,1.12
2022-12-14T14:33:35.938Z,1.15
2022-12-14T14:35:49.564Z,1.27
2022-12-14T14:38:30.978Z,1.21
2022-12-14T14:41:18.149Z,1.44
2022-12-14T14:43:58.800Z,1.44
2022-12-14T14:46:39.093Z,1.21
2022-12-14T14:49:19.169Z,1.21
2022-12-14T14:51:46.269Z,1.03
2022-12-14T14:55:06.526Z,1.13
2022-12-14T14:57:35.841Z,0.98
2022-12-14T15:00:04.622Z,0.90
2022-12-14T15:02:34.257Z,0.93
2022-12-14T15:05:24.654Z,0.91
2022-12-14T15:07:48.357Z,0.99
2022-12-14T15:10:42.750Z,1.04
2022-12-14T15:13:20.618Z,0.90
2022-12-14T15:15:51.255Z,0.90
2022-12-14T15:18:33.045Z,0.80
2022-12-14T15:21:11.042Z,0.70
2022-12-14T15:23:50.320Z,0.63
2022-12-14T15:26:26.317Z,0.79
2022-12-14T15:28:55.266Z,0.59
2022-12-14T15:31:41.704Z,0.60
2022-12-14T15:34:16.320Z,0.64
2022-12-14T15:36:43.975Z,0.56
2022-12-14T15:39:43.469Z,0.35
2022-12-14T15:42:17.377Z,0.20
2022-12-14T15:44:52.624Z,0.08
2022-12-14T15:47:23.318Z,-0.01
2022-12-14T15:49:53.384Z,-0.03
2022-12-14T15:52:30.254Z,-0.46
2022-12-14T15:54:59.208Z,-0.47
2022-12-14T15:57:26.036Z,-0.28
2022-12-14T15:59:56.299Z,-0.04
2022-12-14T16:02:31.063Z,-0.06
2022-12-14T16:05:03.352Z,-0.04
2022-12-14T16:07:38.469Z,-0.24
2022-12-14T16:10:28.398Z,-0.13
2022-12-14T16:13:21.806Z,-0.40
2022-12-14T16:15:49.469Z,-0.30
2022-12-14T16:18:17.752Z,-0.07
2022-12-14T16:20:46.370Z,-0.06
2022-12-14T16:23:13.022Z,-0.15
2022-12-14T16:25:50.441Z,-0.16
2022-12-14T16:28:32.672Z,-0.55
2022-12-14T16:31:11.458Z,-0.79
2022-12-14T16:33:40.811Z,-0.57
2022-12-14T16:36:27.987Z,-0.41
2022-12-14T16:39:00.722Z,-0.64
2022-12-14T16:41:39.376Z,-0.72
2022-12-14T16:44:09.588Z,-0.80
2022-12-14T16:46:36.373Z,-0.78
2022-12-14T16:49:47.958Z,-0.81
2022-12-14T16:52:26.643Z,-1.15
2022-12-14T16:55:15.658Z,-0.91
2022-12-14T16:57:53.239Z,-0.82
2022-12-14T17:00:31.909Z,-0.54
2022-12-14T17:03:20.009Z,-0.51
2022-12-14T17:05:53.537Z,-0.42
2022-12-14T17:08:20.213Z,-0.47
2022-12-14T17:10:47.096Z,-0.59
2022-12-14T17:13:13.971Z,-0.48
2022-12-14T17:16:01.968Z,-0.59
2022-12-14T17:18:32.957Z,-0.69
2022-12-14T17:21:00.422Z,-0.77
2022-12-14T17:23:28.037Z,-0.79
2022-12-14T17:25:54.874Z,-0.83
2022-12-14T17:28:28.000Z,-0.77
2022-12-14T17:30:57.559Z,-0.77
2022-12-14T17:33:25.839Z,-0.74
2022-12-14T17:35:53.399Z,-0.80
2022-12-14T17:38:21.634Z,-0.91
2022-12-14T17:40:50.489Z,-0.94
2022-12-14T17:43:25.544Z,-0.55
2022-12-14T17:45:52.773Z,-0.88
2022-12-14T17:48:19.943Z,-1.27
2022-12-14T17:50:49.714Z,-1.25
2022-12-14T17:53:22.517Z,-1.10
2022-12-14T17:55:49.189Z,-1.07
2022-12-14T17:58:16.646Z,-1.08
2022-12-14T18:01:01.812Z,-1.04
2022-12-14T18:03:36.001Z,-0.86
2022-12-14T18:06:04.503Z,-1.20
2022-12-14T18:08:31.170Z,-1.53
2022-12-14T18:11:00.922Z,-1.32
2022-12-14T18:13:31.058Z,-1.56
2022-12-14T18:15:58.313Z,-1.68
2022-12-14T18:18:27.477Z,-1.76
2022-12-14T18:20:57.180Z,-1.83
2022-12-14T18:23:23.944Z,-1.63
2022-12-14T18:25:55.710Z,-1.49
2022-12-14T18:28:23.475Z,-1.52
2022-12-14T18:30:55.267Z,-1.46
2022-12-14T18:33:25.287Z,-1.33
2022-12-14T18:35:53.487Z,-1.21
2022-12-14T18:38:20.412Z,-1.14
2022-12-14T18:40:50.368Z,-1.27
2022-12-14T18:43:23.561Z,-1.31
2022-12-14T18:45:52.044Z,-1.41
2022-12-14T18:48:18.815Z,-1.47
2022-12-14T18:50:45.830Z,-1.54
2022-12-14T18:53:18.832Z,-1.52
2022-12-14T18:55:46.379Z,-1.70
2022-12-14T18:58:19.448Z,-2.09
2022-12-14T19:00:47.426Z,-2.02
2022-12-14T19:03:15.211Z,-2.33
2022-12-14T19:05:42.810Z,-2.10
2022-12-14T19:08:10.615Z,-1.96
2022-12-14T19:10:40.712Z,-1.82
2022-12-14T19:13:09.549Z,-1.78
2022-12-14T19:15:36.406Z,-1.87
2022-12-14T19:18:03.645Z,-2.26
2022-12-14T19:20:30.369Z,-2.19
2022-12-14T19:22:57.296Z,-2.04
2022-12-14T19:25:24.777Z,-1.85
2022-12-14T19:30:38.879Z,-2.23
2022-12-14T19:33:05.489Z,-2.77
2022-12-14T19:35:32.202Z,-2.70
2022-12-14T19:37:58.855Z,-2.21
2022-12-14T19:40:26.119Z,-2.06
2022-12-14T19:42:52.662Z,-2.05
2022-12-14T19:45:19.389Z,-2.04
2022-12-14T19:47:46.349Z,-2.27
2022-12-14T19:50:14.426Z,-2.39
2022-12-14T19:52:41.307Z,-2.86
2022-12-14T19:55:08.532Z,-3.06
2022-12-14T19:57:35.055Z,-2.56
2022-12-14T20:00:01.771Z,-2.18
2022-12-14T20:02:37.403Z,-2.16
2022-12-14T20:05:05.186Z,-2.06
2022-12-14T20:07:31.919Z,-2.38
2022-12-14T20:09:58.591Z,-2.15
2022-12-14T20:12:25.104Z,-2.16
2022-12-14T20:14:51.696Z,-2.12
2022-12-14T20:17:18.371Z,-1.82
2022-12-14T20:19:45.008Z,-1.80
2022-12-14T20:22:14.565Z,-1.63
2022-12-14T20:24:42.222Z,-1.67
2022-12-14T20:27:08.819Z,-1.78
2022-12-14T20:29:35.451Z,-2.06
2022-12-14T20:32:02.184Z,-2.75
2022-12-14T20:34:30.554Z,-3.09
2022-12-14T20:36:57.088Z,-2.73
2022-12-14T20:39:23.760Z,-2.64
2022-12-14T20:41:50.491Z,-3.01
2022-12-14T20:44:17.202Z,-2.82
2022-12-14T20:46:47.116Z,-2.55
2022-12-14T20:49:16.620Z,-2.41
2022-12-14T20:51:44.643Z,-2.17
2022-12-14T20:54:16.052Z,-1.96
2022-12-14T20:56:43.031Z,-1.78
2022-12-14T20:59:10.210Z,-1.59
2022-12-14T21:01:38.621Z,-1.63
2022-12-14T21:04:06.029Z,-1.55
2022-12-14T21:06:33.318Z,-1.50
2022-12-14T21:09:06.224Z,-1.52
2022-12-14T21:11:54.017Z,-1.39
2022-12-14T21:14:22.165Z,-1.23
2022-12-14T21:16:48.766Z,-1.18
2022-12-14T21:19:16.686Z,-1.31
2022-12-14T21:21:48.090Z,-1.15
2022-12-14T21:24:37.231Z,-1.46
2022-12-14T21:27:05.528Z,-1.51
2022-12-14T21:29:32.123Z,-1.89
2022-12-14T21:31:58.996Z,-2.18
2022-12-14T21:34:25.623Z,-2.07
2022-12-14T21:36:52.269Z,-2.06
2022-12-14T21:39:19.947Z,-2.01
2022-12-14T21:42:06.380Z,-1.86
2022-12-14T21:44:34.811Z,-1.82
2022-12-14T21:47:02.594Z,-1.87
2022-12-14T21:49:29.369Z,-1.81
2022-12-14T21:51:57.267Z,-1.71
2022-12-14T21:54:25.611Z,-1.55
2022-12-14T21:57:10.839Z,-1.52
2022-12-14T21:59:40.094Z,-1.57
2022-12-14T22:02:19.187Z,-1.53
2022-12-14T22:04:46.723Z,-1.79
2022-12-14T22:07:19.327Z,-1.75
2022-12-14T22:09:49.695Z,-1.70
2022-12-14T22:12:18.149Z,-1.73
2022-12-14T22:14:44.696Z,-1.69
2022-12-14T22:17:13.514Z,-1.62
2022-12-14T22:19:40.140Z,-1.59
2022-12-14T22:22:06.876Z,-1.63
2022-12-14T22:24:33.458Z,-1.63
2022-12-14T22:27:00.149Z,-1.75
2022-12-14T22:29:26.816Z,-1.76
2022-12-14T22:31:53.621Z,-1.73
2022-12-14T22:34:22.695Z,-1.73
2022-12-14T22:36:51.049Z,-1.63
2022-12-14T22:39:18.902Z,-1.69
2022-12-14T22:41:46.078Z,-1.68
2022-12-14T22:44:13.103Z,-1.72
2022-12-14T22:46:40.583Z,-1.84
2022-12-14T22:49:07.161Z,-1.84
2022-12-14T22:51:33.710Z,-2.14
2022-12-14T22:54:00.234Z,-2.33
2022-12-14T22:56:48.135Z,-2.32
2022-12-14T22:59:22.003Z,-2.31
2022-12-14T23:01:49.566Z,-2.45
2022-12-14T23:04:17.354Z,-2.58
2022-12-14T23:06:45.037Z,-2.87
2022-12-14T23:09:30.712Z,-2.86
2022-12-14T23:12:21.197Z,-2.72
2022-12-14T23:15:07.270Z,-2.82
2022-12-14T23:17:52.542Z,-2.79
2022-12-14T23:20:37.733Z,-2.79
2022-12-14T23:23:27.684Z,-2.65
2022-12-14T23:26:13.567Z,-2.43
2022-12-14T23:28:59.402Z,-2.50
2022-12-14T23:31:44.571Z,-2.66
2022-12-14T23:34:29.698Z,-2.93
2022-12-14T23:37:19.793Z,-2.57
2022-12-14T23:40:06.359Z,-2.66
2022-12-14T23:42:51.748Z,-2.72
2022-12-14T23:45:36.721Z,-2.70
2022-12-14T23:48:22.083Z,-2.56
2022-12-14T23:51:07.280Z,-2.40
2022-12-14T23:53:52.630Z,-2.13
2022-12-14T23:56:37.885Z,-2.18
2022-12-14T23:59:27.991Z,-2.17
